createdAt,value
2024-03-14T00:01:00.632Z,0.52
2024-03-14T00:03:29.350Z,1.08
2024-03-14T00:05:57.352Z,0.38
2024-03-14T00:08:25.238Z,1.13
2024-03-14T00:10:55.440Z,1.33
2024-03-14T00:13:24.454Z,1.42
2024-03-14T00:15:52.403Z,1.00
2024-03-14T00:18:20.386Z,1.02
2024-03-14T00:20:48.636Z,0.82
2024-03-14T00:23:16.727Z,0.38
2024-03-14T00:25:44.656Z,0.70
2024-03-14T00:28:14.090Z,1.33
2024-03-14T00:30:42.329Z,0.77
2024-03-14T00:33:11.328Z,0.93
2024-03-14T00:35:40.202Z,0.77
2024-03-14T00:38:08.546Z,0.75
2024-03-14T00:40:36.944Z,0.70
2024-03-14T00:43:05.010Z,0.93
2024-03-14T00:45:32.963Z,1.50
2024-03-14T00:48:01.361Z,0.77
2024-03-14T00:50:29.373Z,1.20
2024-03-14T00:52:57.305Z,1.17
2024-03-14T00:55:25.246Z,1.15
2024-03-14T00:57:53.146Z,0.63
2024-03-14T01:00:24.519Z,0.98
2024-03-14T01:02:52.624Z,0.45
2024-03-14T01:05:21.437Z,1.98
2024-03-14T01:07:49.756Z,1.10
2024-03-14T01:10:17.646Z,0.90
2024-03-14T01:12:47.349Z,0.80
2024-03-14T01:15:19.135Z,0.88
2024-03-14T01:17:47.327Z,1.33
2024-03-14T01:20:17.395Z,0.93
2024-03-14T01:22:45.442Z,0.90
2024-03-14T01:25:13.395Z,1.00
2024-03-14T01:27:41.283Z,1.17
2024-03-14T01:30:11.979Z,0.95
2024-03-14T01:32:40.095Z,0.80
2024-03-14T01:35:08.359Z,0.80
2024-03-14T01:37:36.785Z,0.75
2024-03-14T01:40:05.068Z,0.70
2024-03-14T01:42:33.116Z,1.50
2024-03-14T01:45:01.730Z,1.35
2024-03-14T01:47:30.785Z,1.23
2024-03-14T01:49:58.662Z,1.52
2024-03-14T01:52:26.964Z,0.95
2024-03-14T01:54:54.910Z,0.50
2024-03-14T01:57:22.875Z,1.48
2024-03-14T01:59:51.779Z,1.27
2024-03-14T02:02:19.832Z,1.58
2024-03-14T02:04:48.667Z,0.68
2024-03-14T02:07:16.703Z,0.65
2024-03-14T02:09:44.577Z,1.05
2024-03-14T02:12:12.571Z,1.48
2024-03-14T02:14:40.535Z,1.38
2024-03-14T02:17:08.386Z,1.05
2024-03-14T02:19:37.310Z,1.33
2024-03-14T02:22:05.307Z,1.40
2024-03-14T02:24:33.214Z,1.80
2024-03-14T02:27:05.792Z,0.63
2024-03-14T02:29:33.842Z,0.90
2024-03-14T02:32:01.761Z,1.50
2024-03-14T02:34:29.609Z,0.70
2024-03-14T02:36:57.482Z,0.47
2024-03-14T02:39:25.493Z,1.15
2024-03-14T02:41:53.458Z,0.30
2024-03-14T02:44:23.102Z,0.93
2024-03-14T02:46:52.050Z,0.77
2024-03-14T02:49:21.827Z,1.27
2024-03-14T02:51:49.734Z,0.70
2024-03-14T02:54:17.781Z,0.47
2024-03-14T02:56:48.710Z,1.20
2024-03-14T02:59:16.736Z,0.70
2024-03-14T03:01:44.833Z,0.63
2024-03-14T03:04:12.738Z,0.80
2024-03-14T03:06:46.027Z,1.00
2024-03-14T03:09:15.547Z,1.08
2024-03-14T03:11:44.027Z,1.20
2024-03-14T03:14:11.973Z,0.63
2024-03-14T03:16:39.836Z,0.57
2024-03-14T03:19:10.671Z,0.68
2024-03-14T03:21:39.392Z,0.90
2024-03-14T03:24:08.675Z,0.93
2024-03-14T03:26:35.648Z,1.50
2024-03-14T03:29:03.894Z,0.98
2024-03-14T03:31:30.838Z,0.40
2024-03-14T03:33:58.917Z,1.13
2024-03-14T03:36:27.467Z,0.50
2024-03-14T03:38:55.644Z,0.93
2024-03-14T03:41:24.796Z,0.40
2024-03-14T03:43:53.010Z,1.42
2024-03-14T03:46:20.976Z,0.95
2024-03-14T03:48:49.041Z,0.80
2024-03-14T03:51:19.252Z,1.73
2024-03-14T03:53:47.536Z,0.90
2024-03-14T03:56:15.016Z,0.98
2024-03-14T03:58:44.025Z,1.05
2024-03-14T04:01:13.297Z,0.50
2024-03-14T04:03:42.479Z,0.45
2024-03-14T04:06:12.020Z,0.98
2024-03-14T04:08:39.146Z,1.13
2024-03-14T04:11:08.684Z,1.70
2024-03-14T04:13:35.946Z,0.65
2024-03-14T04:16:05.697Z,0.77
2024-03-14T04:18:33.790Z,1.58
2024-03-14T04:21:02.529Z,0.95
2024-03-14T04:23:30.801Z,1.27
2024-03-14T04:25:58.691Z,1.40
2024-03-14T04:28:27.099Z,1.85
2024-03-14T04:30:55.201Z,0.93
2024-03-14T04:33:23.873Z,0.82
2024-03-14T04:35:53.345Z,1.10
2024-03-14T04:38:24.535Z,1.13
2024-03-14T04:40:52.518Z,0.95
2024-03-14T04:43:20.487Z,1.08
2024-03-14T04:45:49.406Z,0.45
2024-03-14T04:48:17.647Z,0.50
2024-03-14T04:50:47.800Z,1.10
2024-03-14T04:53:15.794Z,1.02
2024-03-14T04:55:44.113Z,0.75
2024-03-14T04:58:16.784Z,0.75
2024-03-14T05:00:47.025Z,1.10
2024-03-14T05:03:15.233Z,0.98
2024-03-14T05:05:43.189Z,1.20
2024-03-14T05:08:12.025Z,0.82
2024-03-14T05:10:40.400Z,0.68
2024-03-14T05:13:08.571Z,1.08
2024-03-14T05:15:37.537Z,1.40
2024-03-14T05:18:06.899Z,1.58
2024-03-14T05:20:34.896Z,1.15
2024-03-14T05:23:02.838Z,1.10
2024-03-14T05:25:30.709Z,0.38
2024-03-14T05:27:58.853Z,0.80
2024-03-14T05:30:26.808Z,1.30
2024-03-14T05:32:54.956Z,0.50
2024-03-14T05:35:23.056Z,1.00
2024-03-14T05:37:51.657Z,0.30
2024-03-14T05:40:19.546Z,0.75
2024-03-14T05:42:48.284Z,0.50
2024-03-14T05:45:17.479Z,1.23
2024-03-14T05:47:46.502Z,0.98
2024-03-14T05:50:14.514Z,0.90
2024-03-14T05:52:42.448Z,1.23
2024-03-14T05:55:11.144Z,1.00
2024-03-14T05:57:40.358Z,0.70
2024-03-14T06:00:10.670Z,1.20
2024-03-14T06:02:40.303Z,0.60
2024-03-14T06:05:09.285Z,0.65
2024-03-14T06:07:37.265Z,1.10
2024-03-14T06:10:05.410Z,0.68
2024-03-14T06:12:33.363Z,1.48
2024-03-14T06:15:03.934Z,0.60
2024-03-14T06:17:31.917Z,0.73
2024-03-14T06:19:59.818Z,0.40
2024-03-14T06:22:28.146Z,0.95
2024-03-14T06:24:56.101Z,0.60
2024-03-14T06:27:24.007Z,0.73
2024-03-14T06:29:52.602Z,0.95
2024-03-14T06:32:22.457Z,0.85
2024-03-14T06:34:50.653Z,1.10
2024-03-14T06:37:18.980Z,0.95
2024-03-14T06:39:47.342Z,0.93
2024-03-14T06:42:16.592Z,0.57
2024-03-14T06:44:44.724Z,1.17
2024-03-14T06:47:12.651Z,1.00
2024-03-14T06:49:40.536Z,1.25
2024-03-14T06:52:10.606Z,0.88
2024-03-14T06:54:39.114Z,0.40
2024-03-14T06:57:11.067Z,0.75
2024-03-14T06:59:39.735Z,0.65
2024-03-14T07:02:08.687Z,1.17
2024-03-14T07:04:36.987Z,1.23
2024-03-14T07:07:05.031Z,0.60
2024-03-14T07:09:33.543Z,1.30
2024-03-14T07:12:01.558Z,0.88
2024-03-14T07:14:30.506Z,1.15
2024-03-14T07:16:58.503Z,1.02
2024-03-14T07:19:26.489Z,0.68
2024-03-14T07:21:55.558Z,1.15
2024-03-14T07:24:24.191Z,0.60
2024-03-14T07:26:52.672Z,0.68
2024-03-14T07:29:20.654Z,0.90
2024-03-14T07:31:52.925Z,0.85
2024-03-14T07:34:21.045Z,1.60
2024-03-14T07:36:49.189Z,1.30
2024-03-14T07:39:17.425Z,0.80
2024-03-14T07:41:45.363Z,1.30
2024-03-14T07:44:21.410Z,0.57
2024-03-14T07:46:55.994Z,1.45
2024-03-14T07:49:26.756Z,0.90
2024-03-14T07:51:56.337Z,0.95
2024-03-14T07:54:28.331Z,1.65
2024-03-14T07:56:56.491Z,1.15
2024-03-14T07:59:27.590Z,1.20
2024-03-14T08:01:57.436Z,1.17
2024-03-14T08:04:25.638Z,3.47
2024-03-14T08:06:53.847Z,2.30
2024-03-14T08:09:27.210Z,1.40
2024-03-14T08:11:55.997Z,1.25
2024-03-14T08:14:25.136Z,2.15
2024-03-14T08:16:55.669Z,1.73
2024-03-14T08:19:24.478Z,1.10
2024-03-14T08:21:52.480Z,2.20
2024-03-14T08:24:20.512Z,1.77
2024-03-14T08:26:48.701Z,1.65
2024-03-14T08:29:16.629Z,1.90
2024-03-14T08:31:46.406Z,2.60
2024-03-14T08:34:14.305Z,2.03
2024-03-14T08:36:43.694Z,1.77
2024-03-14T08:39:13.345Z,1.85
2024-03-14T08:41:42.276Z,1.20
2024-03-14T08:44:12.757Z,1.40
2024-03-14T08:46:41.371Z,2.80
2024-03-14T08:49:09.365Z,2.53
2024-03-14T08:51:39.698Z,2.67
2024-03-14T08:54:15.435Z,2.20
2024-03-14T08:56:43.343Z,1.38
2024-03-14T08:59:14.327Z,2.03
2024-03-14T09:01:42.438Z,1.88
2024-03-14T09:04:12.020Z,1.70
2024-03-14T09:06:40.481Z,2.08
2024-03-14T09:09:08.923Z,1.58
2024-03-14T09:11:37.022Z,2.13
2024-03-14T09:14:06.276Z,1.27
2024-03-14T09:16:35.062Z,2.20
2024-03-14T09:19:05.083Z,1.73
2024-03-14T09:21:33.232Z,1.48
2024-03-14T09:24:01.477Z,1.25
2024-03-14T09:26:29.572Z,1.80
2024-03-14T09:28:58.791Z,2.05
2024-03-14T09:31:26.795Z,1.23
2024-03-14T09:33:54.760Z,1.38
2024-03-14T09:36:22.726Z,0.85
2024-03-14T09:38:50.605Z,1.92
2024-03-14T09:41:22.919Z,1.73
2024-03-14T09:43:52.163Z,1.55
2024-03-14T09:46:20.965Z,1.25
2024-03-14T09:48:48.921Z,1.30
2024-03-14T09:51:17.869Z,1.08
2024-03-14T09:53:45.926Z,2.40
2024-03-14T09:56:13.942Z,1.25
2024-03-14T09:58:41.874Z,1.00
2024-03-14T10:01:11.019Z,2.58
2024-03-14T10:03:39.833Z,1.52
2024-03-14T10:06:17.348Z,1.80
2024-03-14T10:08:49.280Z,1.33
2024-03-14T10:11:19.990Z,1.05
2024-03-14T10:13:49.115Z,1.98
2024-03-14T10:16:17.150Z,1.00
2024-03-14T10:18:46.806Z,1.10
2024-03-14T10:21:14.837Z,1.73
2024-03-14T10:23:42.716Z,1.95
2024-03-14T10:26:10.972Z,1.13
2024-03-14T10:28:40.610Z,1.23
2024-03-14T10:31:09.378Z,0.75
2024-03-14T10:33:38.913Z,0.82
2024-03-14T10:36:08.022Z,0.88
2024-03-14T10:38:38.171Z,1.10
2024-03-14T10:41:10.181Z,1.00
2024-03-14T10:43:40.741Z,1.83
2024-03-14T10:46:11.868Z,1.10
2024-03-14T10:48:40.914Z,1.10
2024-03-14T10:51:09.107Z,0.90
2024-03-14T10:53:37.009Z,1.10
2024-03-14T10:56:04.914Z,1.08
2024-03-14T10:58:33.007Z,0.32
2024-03-14T11:01:01.309Z,1.00
2024-03-14T11:03:29.427Z,0.90
2024-03-14T11:05:57.438Z,0.75
2024-03-14T11:08:27.171Z,0.90
2024-03-14T11:10:55.312Z,0.82
2024-03-14T11:13:24.743Z,0.45
2024-03-14T11:15:52.832Z,0.60
2024-03-14T11:18:21.950Z,0.38
2024-03-14T11:20:51.101Z,0.73
2024-03-14T11:23:19.574Z,0.90
2024-03-14T11:25:47.521Z,0.60
2024-03-14T11:28:15.393Z,0.50
2024-03-14T11:30:44.218Z,0.50
2024-03-14T11:33:12.334Z,0.32
2024-03-14T11:35:44.745Z,0.80
2024-03-14T11:38:31.928Z,0.68
2024-03-14T11:41:02.770Z,0.55
2024-03-14T11:43:30.816Z,0.95
2024-03-14T11:45:59.390Z,0.60
2024-03-14T11:48:27.532Z,1.13
2024-03-14T11:50:55.661Z,0.60
2024-03-14T11:53:23.609Z,0.43
2024-03-14T11:55:58.672Z,0.73
2024-03-14T11:58:34.994Z,0.85
2024-03-14T12:01:05.118Z,0.73
2024-03-14T12:03:33.282Z,0.57
2024-03-14T12:06:07.009Z,0.43
2024-03-14T12:08:37.596Z,0.85
2024-03-14T12:11:06.290Z,0.50
2024-03-14T12:13:34.431Z,0.82
2024-03-14T12:16:03.419Z,0.50
2024-03-14T12:18:32.059Z,0.40
2024-03-14T12:21:01.217Z,0.55
2024-03-14T12:23:29.588Z,0.32
2024-03-14T12:26:02.955Z,0.38
2024-03-14T12:28:32.681Z,0.82
2024-03-14T12:31:02.922Z,0.60
2024-03-14T12:33:32.014Z,0.32
2024-03-14T12:36:01.838Z,0.50
2024-03-14T12:38:30.322Z,0.35
2024-03-14T12:40:59.365Z,0.22
2024-03-14T12:43:28.880Z,0.17
2024-03-14T12:45:56.796Z,0.22
2024-03-14T12:48:24.853Z,0.20
2024-03-14T12:50:54.986Z,0.25
2024-03-14T12:53:25.554Z,0.20
2024-03-14T12:55:53.773Z,0.10
2024-03-14T12:58:23.588Z,0.20
2024-03-14T13:00:52.769Z,0.17
2024-03-14T13:03:23.398Z,0.10
2024-03-14T13:05:51.790Z,0.20
2024-03-14T13:08:23.608Z,0.52
2024-03-14T13:10:51.475Z,0.38
2024-03-14T13:13:22.703Z,0.10
2024-03-14T13:15:54.023Z,0.20
2024-03-14T13:18:23.121Z,0.15
2024-03-14T13:20:57.470Z,0.30
2024-03-14T13:23:27.421Z,0.10
2024-03-14T13:25:55.320Z,0.40
2024-03-14T13:28:24.473Z,0.32
2024-03-14T13:30:53.026Z,0.35
2024-03-14T13:33:21.577Z,0.38
2024-03-14T13:35:49.679Z,0.20
2024-03-14T13:38:17.553Z,0.20
2024-03-14T13:40:46.420Z,0.30
2024-03-14T13:43:23.729Z,0.17
2024-03-14T13:45:53.333Z,0.10
2024-03-14T13:48:22.213Z,0.10
2024-03-14T13:50:52.995Z,0.63
2024-03-14T13:53:32.563Z,0.30
2024-03-14T13:56:01.768Z,0.20
2024-03-14T13:58:37.278Z,0.28
2024-03-14T14:01:20.663Z,0.20
2024-03-14T14:06:18.357Z,0.35
2024-03-14T14:08:46.423Z,0.30
2024-03-14T14:11:14.546Z,0.30
2024-03-14T14:13:46.837Z,0.10
2024-03-14T14:16:16.460Z,0.20
2024-03-14T14:18:45.565Z,0.20
2024-03-14T14:21:13.552Z,0.10
2024-03-14T14:23:41.711Z,0.30
2024-03-14T14:26:09.669Z,0.10
2024-03-14T14:28:37.758Z,0.10
2024-03-14T14:31:06.069Z,0.40
2024-03-14T14:33:35.916Z,0.40
2024-03-14T14:36:04.923Z,0.15
2024-03-14T14:38:32.831Z,0.10
2024-03-14T14:41:00.824Z,0.10
2024-03-14T14:43:28.697Z,0.10
2024-03-14T14:45:56.918Z,0.10
2024-03-14T14:48:26.281Z,0.10
2024-03-14T14:50:54.229Z,0.15
2024-03-14T14:53:22.403Z,0.00
2024-03-14T14:55:51.095Z,0.30
2024-03-14T14:58:18.973Z,0.10
2024-03-14T15:00:48.373Z,0.20
2024-03-14T15:03:16.714Z,0.08
2024-03-14T15:05:44.720Z,0.43
2024-03-14T15:08:14.142Z,0.30
2024-03-14T15:10:43.295Z,0.10
2024-03-14T15:13:12.240Z,0.30
2024-03-14T15:15:40.285Z,0.13
2024-03-14T15:18:10.092Z,0.10
2024-03-14T15:20:38.409Z,0.20
2024-03-14T15:23:08.131Z,0.15
2024-03-14T15:25:36.893Z,0.20
2024-03-14T15:28:05.013Z,0.20
2024-03-14T15:30:34.515Z,0.10
2024-03-14T15:33:02.937Z,0.00
2024-03-14T15:35:30.909Z,0.20
2024-03-14T15:37:59.611Z,0.35
2024-03-14T15:40:28.822Z,0.17
2024-03-14T15:42:58.073Z,0.10
2024-03-14T15:45:26.224Z,0.10
2024-03-14T15:47:54.659Z,0.30
2024-03-14T15:50:23.966Z,0.10
2024-03-14T15:52:51.889Z,0.20
2024-03-14T15:55:21.952Z,0.20
2024-03-14T15:57:50.093Z,0.10
2024-03-14T16:00:20.867Z,0.15
2024-03-14T16:02:49.280Z,0.20
2024-03-14T16:05:18.031Z,0.20
2024-03-14T16:07:48.227Z,0.35
2024-03-14T16:10:17.626Z,0.15
2024-03-14T16:12:46.032Z,0.10
2024-03-14T16:15:14.696Z,0.30
2024-03-14T16:17:43.503Z,0.10
2024-03-14T16:20:31.649Z,0.13
2024-03-14T16:23:04.579Z,0.20
2024-03-14T16:25:35.441Z,0.00
2024-03-14T16:28:04.397Z,0.20
2024-03-14T16:30:32.435Z,0.10
2024-03-14T16:33:00.621Z,0.40
2024-03-14T16:35:31.047Z,0.10
2024-03-14T16:38:00.893Z,0.20
2024-03-14T16:40:29.413Z,0.03
2024-03-14T16:42:57.280Z,0.30
2024-03-14T16:45:29.404Z,0.10
2024-03-14T16:47:57.460Z,0.17
2024-03-14T16:50:26.041Z,0.10
2024-03-14T16:52:54.398Z,0.10
2024-03-14T16:55:22.320Z,0.05
2024-03-14T16:57:50.624Z,0.10
2024-03-14T17:00:23.460Z,0.20
2024-03-14T17:02:51.551Z,0.20
2024-03-14T17:05:20.979Z,0.20
2024-03-14T17:07:49.010Z,0.10
2024-03-14T17:10:17.493Z,0.10
2024-03-14T17:12:45.572Z,0.40
2024-03-14T17:15:13.528Z,0.20
2024-03-14T17:17:41.806Z,0.22
2024-03-14T17:20:13.489Z,0.20
2024-03-14T17:22:42.234Z,0.28
2024-03-14T17:25:11.535Z,0.20
2024-03-14T17:27:41.004Z,0.30
2024-03-14T17:30:09.688Z,0.47
2024-03-14T17:32:37.974Z,0.32
2024-03-14T17:35:06.358Z,0.40
2024-03-14T17:37:34.260Z,0.30
2024-03-14T17:40:05.008Z,0.43
2024-03-14T17:42:39.013Z,0.47
2024-03-14T17:45:07.612Z,0.30
2024-03-14T17:47:35.607Z,0.40
2024-03-14T17:50:03.924Z,0.60
2024-03-14T17:52:31.839Z,1.13
2024-03-14T17:54:59.713Z,0.50
2024-03-14T17:57:28.999Z,0.80
2024-03-14T17:59:58.243Z,0.55
2024-03-14T18:02:26.219Z,0.32
2024-03-14T18:04:55.132Z,0.25
2024-03-14T18:07:23.145Z,0.43
2024-03-14T18:09:51.619Z,0.77
2024-03-14T18:12:20.105Z,0.65
2024-03-14T18:14:48.080Z,0.50
2024-03-14T18:17:21.017Z,0.35
2024-03-14T18:19:50.897Z,0.70
2024-03-14T18:22:20.392Z,1.33
2024-03-14T18:24:48.282Z,0.98
2024-03-14T18:27:17.331Z,0.52
2024-03-14T18:29:45.330Z,0.98
2024-03-14T18:32:14.780Z,0.20
2024-03-14T18:34:43.239Z,0.47
2024-03-14T18:37:13.207Z,0.50
2024-03-14T18:39:41.917Z,0.40
2024-03-14T18:42:10.481Z,0.32
2024-03-14T18:44:48.265Z,0.75
2024-03-14T18:47:16.462Z,0.60
2024-03-14T18:49:44.512Z,0.82
2024-03-14T18:52:13.148Z,0.95
2024-03-14T18:54:48.605Z,0.65
2024-03-14T18:57:18.307Z,0.88
2024-03-14T18:59:46.878Z,0.60
2024-03-14T19:02:17.901Z,0.73
2024-03-14T19:04:46.504Z,0.40
2024-03-14T19:07:14.927Z,0.55
2024-03-14T19:09:43.144Z,0.88
2024-03-14T19:12:11.108Z,0.60
2024-03-14T19:14:41.966Z,0.75
2024-03-14T19:17:12.618Z,0.75
2024-03-14T19:19:40.806Z,1.15
2024-03-14T19:22:10.750Z,0.70
2024-03-14T19:24:38.786Z,0.32
2024-03-14T19:27:07.008Z,0.60
2024-03-14T19:29:35.031Z,0.38
2024-03-14T19:32:04.935Z,0.50
2024-03-14T19:34:34.149Z,0.63
2024-03-14T19:37:04.293Z,0.60
2024-03-14T19:39:33.651Z,1.20
2024-03-14T19:42:02.399Z,0.60
2024-03-14T19:44:30.481Z,0.75
2024-03-14T19:47:01.952Z,0.55
2024-03-14T19:49:29.956Z,0.90
2024-03-14T19:51:57.866Z,1.67
2024-03-14T19:54:25.822Z,1.02
2024-03-14T19:56:53.770Z,2.33
2024-03-14T19:59:23.677Z,1.00
2024-03-14T20:01:52.096Z,1.00
2024-03-14T20:04:20.076Z,1.73
2024-03-14T20:06:48.336Z,0.88
2024-03-14T20:09:16.471Z,0.77
2024-03-14T20:11:45.093Z,0.82
2024-03-14T20:14:13.176Z,1.60
2024-03-14T20:16:41.083Z,0.90
2024-03-14T20:19:09.009Z,0.73
2024-03-14T20:21:37.416Z,0.60
2024-03-14T20:24:05.960Z,1.40
2024-03-14T20:26:33.930Z,0.57
2024-03-14T20:29:02.269Z,1.45
2024-03-14T20:31:30.152Z,1.33
2024-03-14T20:33:58.469Z,1.58
2024-03-14T20:36:27.141Z,1.02
2024-03-14T20:41:25.854Z,1.02
2024-03-14T20:43:53.840Z,0.63
2024-03-14T20:46:21.926Z,0.85
2024-03-14T20:48:51.502Z,1.17
2024-03-14T20:51:19.939Z,1.33
2024-03-14T20:53:47.873Z,0.90
2024-03-14T20:56:16.013Z,0.77
2024-03-14T20:58:43.907Z,0.70
2024-03-14T21:01:11.808Z,0.93
2024-03-14T21:03:39.788Z,0.85
2024-03-14T21:06:07.725Z,0.90
2024-03-14T21:08:35.686Z,0.77
2024-03-14T21:11:03.946Z,0.60
2024-03-14T21:13:31.914Z,1.27
2024-03-14T21:16:00.023Z,0.77
2024-03-14T21:18:29.010Z,0.93
2024-03-14T21:20:58.188Z,1.08
2024-03-14T21:23:26.188Z,1.10
2024-03-14T21:25:55.043Z,1.50
2024-03-14T21:28:22.926Z,1.05
2024-03-14T21:30:51.670Z,0.95
2024-03-14T21:33:19.724Z,1.00
2024-03-14T21:35:47.864Z,0.95
2024-03-14T21:38:15.743Z,1.20
2024-03-14T21:40:44.011Z,1.30
2024-03-14T21:43:11.924Z,1.98
2024-03-14T21:45:40.648Z,1.42
2024-03-14T21:48:11.908Z,1.65
2024-03-14T21:50:40.028Z,1.15
2024-03-14T21:53:07.910Z,0.73
2024-03-14T21:55:35.781Z,1.05
2024-03-14T21:58:05.397Z,0.93
2024-03-14T22:00:33.518Z,0.80
2024-03-14T22:03:01.482Z,0.70
2024-03-14T22:05:31.588Z,0.50
2024-03-14T22:07:59.675Z,0.30
2024-03-14T22:10:27.642Z,0.70
2024-03-14T22:12:55.738Z,1.02
2024-03-14T22:15:23.963Z,0.90
2024-03-14T22:17:52.069Z,0.70
2024-03-14T22:20:21.858Z,0.82
2024-03-14T22:22:50.271Z,0.77
2024-03-14T22:25:18.627Z,0.63
2024-03-14T22:27:47.349Z,0.70
2024-03-14T22:30:15.556Z,1.25
2024-03-14T22:32:43.689Z,0.73
2024-03-14T22:35:12.285Z,1.45
2024-03-14T22:37:40.167Z,0.82
2024-03-14T22:40:09.754Z,0.68
2024-03-14T22:42:38.781Z,1.10
2024-03-14T22:45:07.600Z,0.82
2024-03-14T22:47:35.619Z,1.20
2024-03-14T22:50:05.057Z,1.20
2024-03-14T22:52:33.907Z,1.20
2024-03-14T22:55:01.820Z,1.25
2024-03-14T22:57:29.755Z,0.68
2024-03-14T22:59:57.660Z,0.80
2024-03-14T23:02:25.596Z,1.05
2024-03-14T23:04:54.163Z,0.82
2024-03-14T23:07:24.666Z,1.25
2024-03-14T23:09:54.339Z,0.93
2024-03-14T23:12:22.401Z,1.52
2024-03-14T23:14:51.002Z,1.27
2024-03-14T23:17:19.083Z,1.23
2024-03-14T23:19:46.988Z,1.10
2024-03-14T23:22:15.081Z,1.70
2024-03-14T23:24:43.200Z,1.30
2024-03-14T23:27:11.234Z,1.10
2024-03-14T23:29:39.173Z,1.55
2024-03-14T23:32:08.101Z,1.17
2024-03-14T23:34:36.022Z,1.10
2024-03-14T23:37:03.953Z,1.98
2024-03-14T23:39:31.943Z,1.67
2024-03-14T23:41:59.837Z,1.42
2024-03-14T23:44:27.766Z,1.10
2024-03-14T23:46:55.676Z,0.95
2024-03-14T23:49:23.999Z,1.23
2024-03-14T23:51:52.958Z,0.70
2024-03-14T23:54:20.916Z,1.52
2024-03-14T23:56:48.787Z,1.42
2024-03-14T23:59:16.676Z,0.77
